createdAt,value
2023-02-23T00:00:36.334Z,101087.47
2023-02-23T00:03:04.480Z,101086.81
2023-02-23T00:05:37.586Z,101084.31
2023-02-23T00:08:06.190Z,101077.97
2023-02-23T00:10:34.134Z,101087.09
2023-02-23T00:13:02.249Z,101084.88
2023-02-23T00:15:31.456Z,101084.63
2023-02-23T00:17:59.379Z,101090.13
2023-02-23T00:20:28.154Z,101082.00
2023-02-23T00:22:56.831Z,101085.88
2023-02-23T00:25:25.911Z,101078.72
2023-02-23T00:27:54.893Z,101075.34
2023-02-23T00:30:23.209Z,101081.22
2023-02-23T00:32:53.469Z,101066.84
2023-02-23T00:35:21.192Z,101074.06
2023-02-23T00:37:50.049Z,101073.41
2023-02-23T00:40:20.932Z,101082.28
2023-02-23T00:42:49.868Z,101083.19
2023-02-23T00:45:17.971Z,101090.84
2023-02-23T00:47:48.485Z,101095.28
2023-02-23T00:50:19.065Z,101092.78
2023-02-23T00:52:46.846Z,101083.94
2023-02-23T00:55:16.014Z,101084.00
2023-02-23T00:57:43.809Z,101095.19
2023-02-23T01:00:20.140Z,101090.94
2023-02-23T01:02:49.026Z,101087.00
2023-02-23T01:05:18.406Z,101081.06
2023-02-23T01:07:47.481Z,101093.59
2023-02-23T01:10:20.973Z,101100.66
2023-02-23T01:12:50.211Z,101090.63
2023-02-23T01:15:19.152Z,101096.34
2023-02-23T01:17:48.040Z,101101.84
2023-02-23T01:20:19.319Z,101081.47
2023-02-23T01:22:48.403Z,101079.28
2023-02-23T01:25:16.857Z,101071.88
2023-02-23T01:27:45.884Z,101075.63
2023-02-23T01:30:15.903Z,101069.53
2023-02-23T01:32:44.036Z,101063.06
2023-02-23T01:35:13.568Z,101065.44
2023-02-23T01:37:44.189Z,101068.13
2023-02-23T01:40:15.816Z,101059.09
2023-02-23T01:42:46.886Z,101055.25
2023-02-23T01:45:28.725Z,101052.78
2023-02-23T01:48:01.631Z,101054.03
2023-02-23T01:50:34.351Z,101046.84
2023-02-23T01:53:04.155Z,101058.97
2023-02-23T01:55:32.460Z,101061.66
2023-02-23T01:58:06.580Z,101060.84
2023-02-23T02:00:36.782Z,101051.34
2023-02-23T02:03:12.068Z,101064.25
2023-02-23T02:05:40.434Z,101054.25
2023-02-23T02:08:11.561Z,101042.91
2023-02-23T02:10:46.592Z,101034.03
2023-02-23T02:13:22.782Z,101042.97
2023-02-23T02:16:22.565Z,101033.88
2023-02-23T02:19:06.047Z,101045.16
2023-02-23T02:22:16.008Z,101037.84
2023-02-23T02:25:21.981Z,101032.56
2023-02-23T02:28:18.054Z,101045.16
2023-02-23T02:31:15.680Z,101047.59
2023-02-23T02:34:06.640Z,101044.38
2023-02-23T02:37:09.854Z,101033.44
2023-02-23T02:39:46.666Z,101044.63
2023-02-23T02:42:23.654Z,101045.31
2023-02-23T02:44:58.775Z,101040.97
2023-02-23T02:47:30.520Z,101049.78
2023-02-23T02:50:04.243Z,101039.81
2023-02-23T02:52:40.253Z,101035.00
2023-02-23T02:55:16.086Z,101030.16
2023-02-23T02:57:47.214Z,101031.31
2023-02-23T03:00:37.578Z,101022.63
2023-02-23T03:03:23.108Z,101017.78
2023-02-23T03:06:11.380Z,101020.13
2023-02-23T03:09:06.737Z,101021.41
2023-02-23T03:11:57.948Z,101015.38
2023-02-23T03:14:52.829Z,101010.00
2023-02-23T03:17:51.012Z,101017.69
2023-02-23T03:20:44.947Z,101011.63
2023-02-23T03:23:38.476Z,101010.66
2023-02-23T03:26:31.128Z,101004.47
2023-02-23T03:29:23.447Z,101003.25
2023-02-23T03:32:18.507Z,101004.75
2023-02-23T03:35:09.071Z,101006.50
2023-02-23T03:37:58.432Z,101004.13
2023-02-23T03:40:47.777Z,101001.44
2023-02-23T03:43:37.676Z,100995.22
2023-02-23T03:46:28.632Z,100995.78
2023-02-23T03:49:16.608Z,100994.88
2023-02-23T03:52:06.577Z,101005.94
2023-02-23T03:54:57.372Z,101004.00
2023-02-23T03:57:45.541Z,101010.13
2023-02-23T04:00:38.356Z,101013.69
2023-02-23T04:03:26.697Z,101018.63
2023-02-23T04:06:14.461Z,101012.06
2023-02-23T04:09:00.214Z,101015.44
2023-02-23T04:11:50.604Z,100996.00
2023-02-23T04:14:26.390Z,101007.44
2023-02-23T04:16:55.130Z,101017.13
2023-02-23T04:19:22.949Z,101016.72
2023-02-23T04:21:50.679Z,101017.50
2023-02-23T04:24:18.944Z,101007.97
2023-02-23T04:26:46.679Z,101005.84
2023-02-23T04:29:14.561Z,101001.59
2023-02-23T04:31:42.698Z,100989.53
2023-02-23T04:34:12.160Z,100981.38
2023-02-23T04:36:40.671Z,100974.81
2023-02-23T04:39:08.418Z,100972.53
2023-02-23T04:41:36.254Z,100974.00
2023-02-23T04:44:04.544Z,100985.78
2023-02-23T04:46:32.326Z,100993.38
2023-02-23T04:49:00.138Z,100998.53
2023-02-23T04:51:32.270Z,101001.50
2023-02-23T04:54:00.090Z,101001.78
2023-02-23T04:56:27.948Z,101008.63
2023-02-23T04:58:55.854Z,101004.28
2023-02-23T05:01:23.936Z,101021.00
2023-02-23T05:03:52.002Z,101018.38
2023-02-23T05:06:20.088Z,101019.19
2023-02-23T05:08:49.427Z,101010.28
2023-02-23T05:11:17.439Z,101005.38
2023-02-23T05:13:45.368Z,101007.31
2023-02-23T05:16:13.138Z,101008.75
2023-02-23T05:18:40.939Z,101002.44
2023-02-23T05:21:09.967Z,101011.16
2023-02-23T05:23:37.856Z,101019.50
2023-02-23T05:26:09.347Z,101013.88
2023-02-23T05:28:38.559Z,101008.38
2023-02-23T05:31:06.600Z,101008.31
2023-02-23T05:33:35.686Z,101003.38
2023-02-23T05:36:05.977Z,100993.31
2023-02-23T05:38:34.234Z,100995.59
2023-02-23T05:41:08.012Z,100997.16
2023-02-23T05:43:36.047Z,100990.84
2023-02-23T05:46:07.845Z,100997.31
2023-02-23T05:48:35.851Z,101000.78
2023-02-23T05:51:04.431Z,100997.50
2023-02-23T05:53:32.960Z,100997.44
2023-02-23T05:56:00.711Z,100990.41
2023-02-23T05:58:30.521Z,100984.47
2023-02-23T06:00:58.496Z,100975.56
2023-02-23T06:03:26.479Z,100983.09
2023-02-23T06:05:56.072Z,100979.63
2023-02-23T06:08:25.485Z,100986.34
2023-02-23T06:10:53.787Z,100988.63
2023-02-23T06:13:22.263Z,100991.72
2023-02-23T06:15:51.517Z,100996.03
2023-02-23T06:18:19.235Z,100997.09
2023-02-23T06:20:47.168Z,100993.94
2023-02-23T06:23:15.683Z,100995.63
2023-02-23T06:25:43.635Z,100992.38
2023-02-23T06:28:11.685Z,100994.88
2023-02-23T06:30:40.566Z,100993.91
2023-02-23T06:33:09.882Z,100983.50
2023-02-23T06:35:37.680Z,100984.06
2023-02-23T06:38:06.327Z,100983.16
2023-02-23T06:40:34.468Z,100976.06
2023-02-23T06:43:03.624Z,100967.13
2023-02-23T06:45:31.772Z,100975.00
2023-02-23T06:47:59.785Z,100979.63
2023-02-23T06:50:29.310Z,100965.47
2023-02-23T06:52:57.728Z,100971.72
2023-02-23T06:55:25.488Z,100968.09
2023-02-23T06:57:54.381Z,100970.25
2023-02-23T07:00:23.361Z,100967.06
2023-02-23T07:02:51.199Z,100974.34
2023-02-23T07:05:19.404Z,100972.31
2023-02-23T07:07:48.486Z,100982.78
2023-02-23T07:10:16.403Z,100986.81
2023-02-23T07:12:44.192Z,100988.78
2023-02-23T07:15:12.510Z,100986.84
2023-02-23T07:17:40.272Z,100998.88
2023-02-23T07:20:08.673Z,100997.38
2023-02-23T07:22:38.132Z,100997.09
2023-02-23T07:25:10.012Z,101007.88
2023-02-23T07:27:38.273Z,101006.91
2023-02-23T07:30:07.053Z,101004.28
2023-02-23T07:32:34.985Z,101009.28
2023-02-23T07:35:03.180Z,101009.09
2023-02-23T07:37:30.967Z,101003.66
2023-02-23T07:40:01.044Z,101012.28
2023-02-23T07:42:30.522Z,101017.22
2023-02-23T07:44:58.300Z,101010.03
2023-02-23T07:47:31.057Z,101016.50
2023-02-23T07:50:00.559Z,101016.72
2023-02-23T07:52:28.317Z,101019.53
2023-02-23T07:54:56.551Z,101023.94
2023-02-23T07:57:25.058Z,101017.69
2023-02-23T07:59:54.357Z,101012.34
2023-02-23T08:02:22.228Z,101008.69
2023-02-23T08:04:50.644Z,101008.56
2023-02-23T08:07:18.447Z,101012.53
2023-02-23T08:09:46.166Z,101012.66
2023-02-23T08:12:15.414Z,101006.53
2023-02-23T08:14:43.431Z,101012.41
2023-02-23T08:17:12.879Z,101010.72
2023-02-23T08:19:41.137Z,101015.81
2023-02-23T08:22:10.251Z,101012.16
2023-02-23T08:24:38.412Z,101014.50
2023-02-23T08:27:06.316Z,101014.34
2023-02-23T08:29:34.943Z,101019.03
2023-02-23T08:32:04.089Z,101026.97
2023-02-23T08:34:33.306Z,101028.50
2023-02-23T08:37:01.128Z,101026.47
2023-02-23T08:39:28.985Z,101034.41
2023-02-23T08:41:56.723Z,101050.03
2023-02-23T08:44:24.603Z,101049.50
2023-02-23T08:46:53.833Z,101049.44
2023-02-23T08:49:21.664Z,101053.88
2023-02-23T08:51:50.947Z,101057.31
2023-02-23T08:54:20.470Z,101056.19
2023-02-23T08:56:48.292Z,101058.03
2023-02-23T08:59:16.608Z,101048.34
2023-02-23T09:01:44.393Z,101046.63
2023-02-23T09:04:12.095Z,101044.47
2023-02-23T09:06:40.965Z,101046.22
2023-02-23T09:09:10.064Z,101050.00
2023-02-23T09:11:37.829Z,101050.47
2023-02-23T09:14:05.845Z,101052.75
2023-02-23T09:16:33.908Z,101059.38
2023-02-23T09:19:01.676Z,101060.34
2023-02-23T09:21:30.058Z,101066.41
2023-02-23T09:23:58.620Z,101071.31
2023-02-23T09:26:28.537Z,101065.88
2023-02-23T09:28:56.559Z,101074.00
2023-02-23T09:31:25.232Z,101068.09
2023-02-23T09:33:54.252Z,101070.03
2023-02-23T09:36:24.979Z,101074.09
2023-02-23T09:38:57.024Z,101074.31
2023-02-23T09:41:51.473Z,101071.25
2023-02-23T09:44:27.582Z,101057.63
2023-02-23T09:47:06.332Z,101070.06
2023-02-23T09:49:39.072Z,101074.47
2023-02-23T09:52:16.356Z,101067.28
2023-02-23T09:54:45.037Z,101062.94
2023-02-23T09:57:17.752Z,101064.97
2023-02-23T09:59:46.161Z,101060.44
2023-02-23T10:02:24.246Z,101062.19
2023-02-23T10:04:56.846Z,101057.09
2023-02-23T10:07:34.406Z,101053.56
2023-02-23T10:10:16.636Z,101062.34
2023-02-23T10:12:56.107Z,101058.09
2023-02-23T10:15:33.275Z,101067.25
2023-02-23T10:18:10.139Z,101062.63
2023-02-23T10:20:47.630Z,101057.66
2023-02-23T10:23:21.076Z,101063.53
2023-02-23T10:25:51.819Z,101065.78
2023-02-23T10:28:23.172Z,101061.31
2023-02-23T10:30:51.884Z,101062.19
2023-02-23T10:33:25.236Z,101055.47
2023-02-23T10:36:07.405Z,101054.72
2023-02-23T10:38:40.141Z,101054.88
2023-02-23T10:41:08.575Z,101054.53
2023-02-23T10:43:37.905Z,101054.78
2023-02-23T10:46:07.646Z,101053.97
2023-02-23T10:48:39.933Z,101050.34
2023-02-23T10:51:14.335Z,101054.34
2023-02-23T10:53:43.486Z,101055.66
2023-02-23T10:56:13.778Z,101054.44
2023-02-23T10:58:46.638Z,101052.50
2023-02-23T11:01:16.979Z,101053.25
2023-02-23T11:03:57.649Z,101046.56
2023-02-23T11:06:35.083Z,101056.84
2023-02-23T11:09:33.009Z,101054.88
2023-02-23T11:12:21.603Z,101062.94
2023-02-23T11:14:52.244Z,101064.38
2023-02-23T11:17:27.821Z,101059.97
2023-02-23T11:20:02.562Z,101059.06
2023-02-23T11:22:37.160Z,101051.59
2023-02-23T11:25:16.829Z,101063.53
2023-02-23T11:27:51.350Z,101056.38
2023-02-23T11:30:24.576Z,101055.31
2023-02-23T11:32:53.932Z,101046.16
2023-02-23T11:35:31.382Z,101044.94
2023-02-23T11:37:59.284Z,101046.16
2023-02-23T11:40:28.964Z,101029.44
2023-02-23T11:42:59.042Z,101035.31
2023-02-23T11:45:33.632Z,101011.09
2023-02-23T11:48:03.953Z,101015.09
2023-02-23T11:50:35.463Z,101007.75
2023-02-23T11:53:06.473Z,100996.38
2023-02-23T11:55:37.776Z,100988.13
2023-02-23T11:58:11.778Z,100981.25
2023-02-23T12:00:41.446Z,100981.88
2023-02-23T12:03:22.792Z,100984.75
2023-02-23T12:05:53.342Z,100980.53
2023-02-23T12:08:33.515Z,100976.56
2023-02-23T12:11:05.435Z,100971.34
2023-02-23T12:13:39.077Z,100965.16
2023-02-23T12:16:15.669Z,100956.03
2023-02-23T12:18:50.119Z,100959.41
2023-02-23T12:21:33.649Z,100956.25
2023-02-23T12:24:14.112Z,100956.16
2023-02-23T12:26:48.678Z,100950.81
2023-02-23T12:29:24.204Z,100953.31
2023-02-23T12:31:58.929Z,100949.66
2023-02-23T12:34:33.064Z,100957.50
2023-02-23T12:37:07.471Z,100948.22
2023-02-23T12:39:39.862Z,100944.97
2023-02-23T12:42:15.535Z,100955.03
2023-02-23T12:44:48.457Z,100943.28
2023-02-23T12:47:28.315Z,100944.75
2023-02-23T12:50:08.073Z,100940.47
2023-02-23T12:52:40.040Z,100933.63
2023-02-23T12:55:11.329Z,100941.59
2023-02-23T12:57:49.512Z,100941.41
2023-02-23T13:00:46.476Z,100944.28
2023-02-23T13:03:30.344Z,100938.72
2023-02-23T13:06:05.354Z,100939.63
2023-02-23T13:08:50.737Z,100939.94
2023-02-23T13:11:30.876Z,100937.34
2023-02-23T13:14:05.156Z,100936.06
2023-02-23T13:16:36.423Z,100935.81
2023-02-23T13:19:16.808Z,100944.25
2023-02-23T13:21:50.367Z,100937.84
2023-02-23T13:24:20.106Z,100934.56
2023-02-23T13:26:54.995Z,100925.19
2023-02-23T13:29:35.409Z,100923.56
2023-02-23T13:32:06.295Z,100926.63
2023-02-23T13:34:37.949Z,100920.53
2023-02-23T13:37:08.348Z,100915.09
2023-02-23T13:39:53.380Z,100921.03
2023-02-23T13:42:41.477Z,100912.88
2023-02-23T13:45:25.475Z,100910.31
2023-02-23T13:47:57.756Z,100904.34
2023-02-23T13:50:32.532Z,100905.91
2023-02-23T13:53:04.961Z,100905.97
2023-02-23T13:55:49.909Z,100900.13
2023-02-23T13:58:22.073Z,100887.28
2023-02-23T14:00:56.244Z,100895.97
2023-02-23T14:03:28.090Z,100885.41
2023-02-23T14:06:01.418Z,100881.34
2023-02-23T14:08:34.639Z,100888.03
2023-02-23T14:11:03.130Z,100884.03
2023-02-23T14:13:32.995Z,100882.88
2023-02-23T14:16:19.716Z,100883.59
2023-02-23T14:19:22.495Z,100878.63
2023-02-23T14:22:00.047Z,100877.97
2023-02-23T14:24:28.953Z,100870.78
2023-02-23T14:27:41.682Z,100879.44
2023-02-23T14:30:22.751Z,100876.63
2023-02-23T14:32:53.676Z,100872.13
2023-02-23T14:35:42.684Z,100872.81
2023-02-23T14:38:18.575Z,100872.97
2023-02-23T14:40:49.318Z,100863.41
2023-02-23T14:43:42.710Z,100864.00
2023-02-23T14:46:15.714Z,100859.31
2023-02-23T14:48:46.935Z,100854.78
2023-02-23T14:51:21.328Z,100850.13
2023-02-23T14:53:55.098Z,100855.72
2023-02-23T14:56:35.521Z,100855.09
2023-02-23T14:59:10.006Z,100856.03
2023-02-23T15:01:39.618Z,100852.25
2023-02-23T15:04:12.343Z,100847.50
2023-02-23T15:06:42.634Z,100844.75
2023-02-23T15:09:19.044Z,100846.66
2023-02-23T15:11:53.946Z,100842.34
2023-02-23T15:14:27.874Z,100842.91
2023-02-23T15:16:57.692Z,100837.06
2023-02-23T15:19:28.909Z,100839.81
2023-02-23T15:21:59.162Z,100836.84
2023-02-23T15:24:31.957Z,100835.81
2023-02-23T15:27:00.106Z,100844.88
2023-02-23T15:29:34.039Z,100834.59
2023-02-23T15:32:17.545Z,100848.16
2023-02-23T15:34:45.660Z,100839.69
2023-02-23T15:37:21.000Z,100839.53
2023-02-23T15:39:54.173Z,100844.91
2023-02-23T15:42:26.405Z,100837.03
2023-02-23T15:45:01.064Z,100841.34
2023-02-23T15:47:34.622Z,100836.59
2023-02-23T15:50:07.403Z,100836.94
2023-02-23T15:52:36.115Z,100837.56
2023-02-23T15:55:08.966Z,100833.91
2023-02-23T15:57:48.254Z,100834.63
2023-02-23T16:00:23.354Z,100833.28
2023-02-23T16:02:51.642Z,100828.22
2023-02-23T16:05:21.889Z,100831.91
2023-02-23T16:07:49.887Z,100824.75
2023-02-23T16:10:23.482Z,100831.81
2023-02-23T16:12:53.843Z,100824.50
2023-02-23T16:15:27.040Z,100825.81
2023-02-23T16:17:58.781Z,100816.03
2023-02-23T16:20:35.613Z,100805.75
2023-02-23T16:23:04.720Z,100806.56
2023-02-23T16:25:35.881Z,100804.09
2023-02-23T16:28:05.896Z,100796.72
2023-02-23T16:30:43.142Z,100795.22
2023-02-23T16:33:18.929Z,100788.34
2023-02-23T16:35:49.064Z,100796.44
2023-02-23T16:38:24.669Z,100790.31
2023-02-23T16:40:54.055Z,100792.66
2023-02-23T16:43:21.951Z,100801.19
2023-02-23T16:45:49.900Z,100795.72
2023-02-23T16:48:19.327Z,100794.47
2023-02-23T16:50:48.612Z,100789.66
2023-02-23T16:53:16.931Z,100786.97
2023-02-23T16:55:48.356Z,100779.75
2023-02-23T16:58:20.866Z,100775.44
2023-02-23T17:00:49.044Z,100770.44
2023-02-23T17:03:20.466Z,100775.84
2023-02-23T17:05:48.725Z,100779.63
2023-02-23T17:08:16.520Z,100778.66
2023-02-23T17:10:47.254Z,100780.16
2023-02-23T17:13:20.131Z,100782.38
2023-02-23T17:15:51.924Z,100785.91
2023-02-23T17:18:20.351Z,100801.34
2023-02-23T17:20:48.098Z,100790.69
2023-02-23T17:23:15.805Z,100804.75
2023-02-23T17:25:43.710Z,100807.03
2023-02-23T17:28:11.430Z,100804.44
2023-02-23T17:30:42.662Z,100797.09
2023-02-23T17:33:11.317Z,100795.41
2023-02-23T17:35:39.468Z,100798.84
2023-02-23T17:38:08.322Z,100793.13
2023-02-23T17:40:37.882Z,100802.78
2023-02-23T17:43:08.578Z,100803.69
2023-02-23T17:45:36.526Z,100803.69
2023-02-23T17:48:06.131Z,100805.25
2023-02-23T17:50:33.925Z,100804.19
2023-02-23T17:53:01.670Z,100812.63
2023-02-23T17:55:29.448Z,100817.00
2023-02-23T17:57:57.312Z,100821.53
2023-02-23T18:00:26.161Z,100828.31
2023-02-23T18:02:53.934Z,100819.00
2023-02-23T18:05:23.204Z,100828.69
2023-02-23T18:07:50.947Z,100835.72
2023-02-23T18:10:18.937Z,100842.69
2023-02-23T18:12:46.773Z,100840.91
2023-02-23T18:15:14.542Z,100842.53
2023-02-23T18:17:42.321Z,100849.75
2023-02-23T18:20:14.952Z,100852.38
2023-02-23T18:22:44.949Z,100842.31
2023-02-23T18:25:21.443Z,100850.66
2023-02-23T18:27:51.601Z,100852.22
2023-02-23T18:30:19.729Z,100852.13
2023-02-23T18:32:47.604Z,100851.94
2023-02-23T18:35:15.509Z,100860.09
2023-02-23T18:37:44.784Z,100862.34
2023-02-23T18:40:21.196Z,100861.97
2023-02-23T18:42:49.228Z,100867.06
2023-02-23T18:45:17.237Z,100858.72
2023-02-23T18:47:44.997Z,100860.81
2023-02-23T18:50:19.078Z,100863.59
2023-02-23T18:52:50.659Z,100865.41
2023-02-23T18:55:19.634Z,100867.47
2023-02-23T18:57:47.881Z,100862.63
2023-02-23T19:00:18.072Z,100861.47
2023-02-23T19:02:47.347Z,100867.97
2023-02-23T19:05:16.265Z,100854.19
2023-02-23T19:07:44.426Z,100860.91
2023-02-23T19:10:16.359Z,100860.91
2023-02-23T19:12:44.487Z,100857.38
2023-02-23T19:15:13.242Z,100854.94
2023-02-23T19:17:41.235Z,100863.78
2023-02-23T19:20:13.215Z,100868.50
2023-02-23T19:22:42.026Z,100859.69
2023-02-23T19:25:14.514Z,100854.09
2023-02-23T19:27:44.130Z,100859.19
2023-02-23T19:30:14.186Z,100847.03
2023-02-23T19:32:42.184Z,100847.44
2023-02-23T19:35:14.754Z,100842.53
2023-02-23T19:37:48.254Z,100836.22
2023-02-23T19:40:19.413Z,100834.78
2023-02-23T19:42:49.498Z,100827.88
2023-02-23T19:45:18.472Z,100831.09
2023-02-23T19:47:46.401Z,100834.59
2023-02-23T19:50:17.274Z,100829.47
2023-02-23T19:52:45.761Z,100829.59
2023-02-23T19:55:14.193Z,100825.78
2023-02-23T19:57:42.021Z,100829.06
2023-02-23T20:00:12.867Z,100826.81
2023-02-23T20:02:43.522Z,100828.44
2023-02-23T20:05:12.518Z,100828.53
2023-02-23T20:07:40.690Z,100833.50
2023-02-23T20:10:10.391Z,100834.44
2023-02-23T20:12:38.148Z,100827.03
2023-02-23T20:15:07.081Z,100830.53
2023-02-23T20:17:36.473Z,100820.13
2023-02-23T20:20:05.956Z,100819.00
2023-02-23T20:22:36.451Z,100823.47
2023-02-23T20:25:06.700Z,100825.88
2023-02-23T20:27:36.997Z,100820.88
2023-02-23T20:30:05.652Z,100821.44
2023-02-23T20:32:33.545Z,100822.53
2023-02-23T20:35:02.734Z,100817.00
2023-02-23T20:37:31.324Z,100817.50
2023-02-23T20:39:59.099Z,100812.50
2023-02-23T20:42:28.290Z,100823.91
2023-02-23T20:44:56.298Z,100818.38
2023-02-23T20:47:24.537Z,100820.44
2023-02-23T20:49:52.360Z,100807.56
2023-02-23T20:52:21.486Z,100815.38
2023-02-23T20:54:49.262Z,100817.94
2023-02-23T20:57:17.018Z,100816.28
2023-02-23T20:59:44.818Z,100818.84
2023-02-23T21:02:15.145Z,100826.13
2023-02-23T21:04:45.134Z,100823.34
2023-02-23T21:07:13.479Z,100822.06
2023-02-23T21:09:42.961Z,100832.44
2023-02-23T21:12:11.335Z,100835.19
2023-02-23T21:14:39.120Z,100830.13
2023-02-23T21:17:07.450Z,100825.94
2023-02-23T21:19:36.427Z,100840.44
2023-02-23T21:22:04.321Z,100830.31
2023-02-23T21:24:34.700Z,100834.69
2023-02-23T21:27:05.336Z,100834.00
2023-02-23T21:29:33.169Z,100829.94
2023-02-23T21:32:01.426Z,100840.34
2023-02-23T21:34:29.238Z,100837.09
2023-02-23T21:36:59.166Z,100845.94
2023-02-23T21:39:28.008Z,100850.25
2023-02-23T21:41:56.128Z,100846.56
2023-02-23T21:44:25.443Z,100852.19
2023-02-23T21:46:53.408Z,100853.06
2023-02-23T21:49:21.211Z,100858.59
2023-02-23T21:51:48.968Z,100851.44
2023-02-23T21:54:18.442Z,100848.03
2023-02-23T21:56:46.259Z,100847.06
2023-02-23T21:59:13.975Z,100854.88
2023-02-23T22:01:43.397Z,100853.50
2023-02-23T22:04:15.343Z,100848.03
2023-02-23T22:06:45.177Z,100846.34
2023-02-23T22:09:15.685Z,100844.50
2023-02-23T22:11:45.952Z,100839.78
2023-02-23T22:14:16.559Z,100847.16
2023-02-23T22:16:46.182Z,100842.31
2023-02-23T22:19:14.136Z,100833.84
2023-02-23T22:21:42.882Z,100835.72
2023-02-23T22:24:12.612Z,100841.81
2023-02-23T22:26:42.802Z,100848.88
2023-02-23T22:29:11.425Z,100843.31
2023-02-23T22:31:39.812Z,100842.16
2023-02-23T22:34:09.101Z,100842.34
2023-02-23T22:36:36.873Z,100847.09
2023-02-23T22:39:07.190Z,100841.84
2023-02-23T22:41:42.226Z,100839.69
2023-02-23T22:44:13.359Z,100849.22
2023-02-23T22:46:41.907Z,100853.84
2023-02-23T22:49:11.840Z,100846.53
2023-02-23T22:51:40.055Z,100838.69
2023-02-23T22:54:08.196Z,100843.00
2023-02-23T22:56:37.426Z,100832.41
2023-02-23T22:59:06.486Z,100840.16
2023-02-23T23:01:34.661Z,100845.44
2023-02-23T23:04:10.080Z,100829.81
2023-02-23T23:06:40.564Z,100838.47
2023-02-23T23:09:11.738Z,100832.75
2023-02-23T23:11:41.666Z,100836.28
2023-02-23T23:14:11.207Z,100844.63
2023-02-23T23:16:47.705Z,100834.56
2023-02-23T23:19:17.525Z,100834.03
2023-02-23T23:21:46.962Z,100829.25
2023-02-23T23:24:15.562Z,100835.47
2023-02-23T23:26:44.409Z,100829.19
2023-02-23T23:29:14.536Z,100833.63
2023-02-23T23:31:45.497Z,100834.16
2023-02-23T23:34:17.073Z,100835.22
2023-02-23T23:36:49.122Z,100830.72
2023-02-23T23:39:18.212Z,100828.84
2023-02-23T23:41:47.941Z,100827.97
2023-02-23T23:44:17.228Z,100827.00
2023-02-23T23:46:46.460Z,100820.31
2023-02-23T23:49:17.446Z,100828.13
2023-02-23T23:51:49.906Z,100821.25
2023-02-23T23:54:20.070Z,100827.00
2023-02-23T23:56:47.875Z,100820.53
2023-02-23T23:59:20.236Z,100817.97
